Brackettville, Texas
Current Conditions -  °F | °C
As of 10:58 AM on Thursday 23 Oct 2014 (Local Time) from KDLF Reporting Station
Overcast Overcast  
Wind Chill: 68°   Ceiling: 2000
Heat Index: 68°   Visibility: 10mi
Dew Point: 65°   Wind: 7mph
Humidity: 92%   Direction: 140°SE
Pressure: 30.16"   Gusts: NA
Location:  29.31°N, 100.42°W
Report Text: KDLF 231558Z AUTO 14006KT 10SM FEW007 OVC020 20/19 A3016 RMK AO2 SLP204 T01980185 $
Loading
Personal Weather Stations






























Interactive Weather Map
Tropical Storm Tracking
New forecast layout! Learn more

10-Day Weather Forecast

Advertisements
Track Severe Weather on mobile